Terminal Aerodrome Forecast
Issued by NWS

Home | Current Version | Previous Version | Text Only | Print | Product List | Glossary On
Versions: 1 2 3 4 5 6 7 8 9 10 11 12 13 14
000
FTUS42 KFFC 231946 AAA
TAFRYY
TAF AMD
KRYY 231946Z 2320/2418 10010G18KT 4SM -SHRA BR OVC006
      TEMPO 2320/2323 2SM SHRA BR OVC004
     FM232300 15008G16KT 4SM -SHRA BR OVC006
     FM240300 19006KT 3SM BR OVC004
     FM241500 24008KT P6SM BKN015 OVC030=

USA.gov is the U.S. government's official web portal to all federal, state and local government web resources and services.